createdAt,value
2018-09-30T00:01:29.130Z,5.65
2018-09-30T00:03:57.299Z,10.13
2018-09-30T00:06:25.564Z,8.10
2018-09-30T00:08:53.800Z,7.20
2018-09-30T00:11:21.976Z,14.27
2018-09-30T00:13:50.192Z,8.57
2018-09-30T00:16:18.424Z,5.67
2018-09-30T00:18:46.656Z,7.00
2018-09-30T00:21:14.871Z,4.70
2018-09-30T00:23:48.598Z,9.87
2018-09-30T00:26:22.384Z,6.20
2018-09-30T00:28:50.585Z,6.70
2018-09-30T00:31:18.776Z,7.10
2018-09-30T00:33:52.888Z,11.28
2018-09-30T00:36:21.111Z,9.93
2018-09-30T00:38:49.236Z,8.73
2018-09-30T00:41:17.552Z,8.30
2018-09-30T00:43:45.947Z,8.23
2018-09-30T00:46:14.099Z,9.80
2018-09-30T00:48:42.815Z,6.90
2018-09-30T00:51:10.985Z,7.30
2018-09-30T00:53:39.176Z,6.85
2018-09-30T00:56:07.801Z,6.17
2018-09-30T00:58:36.028Z,9.60
2018-09-30T01:01:04.269Z,15.48
2018-09-30T01:03:32.421Z,6.30
2018-09-30T01:06:00.585Z,11.63
2018-09-30T01:08:28.797Z,5.53
2018-09-30T01:10:57.094Z,7.12
2018-09-30T01:13:25.284Z,8.53
2018-09-30T01:15:53.456Z,6.92
2018-09-30T01:18:21.658Z,10.53
2018-09-30T01:20:49.863Z,7.90
2018-09-30T01:23:18.066Z,10.80
2018-09-30T01:25:46.579Z,8.45
2018-09-30T01:28:14.821Z,8.93
2018-09-30T01:30:45.800Z,8.00
2018-09-30T01:33:13.960Z,9.23
2018-09-30T01:35:42.151Z,11.07
2018-09-30T01:38:10.384Z,11.37
2018-09-30T01:40:38.647Z,10.47
2018-09-30T01:43:06.839Z,16.23
2018-09-30T01:45:35.036Z,10.33
2018-09-30T01:48:03.265Z,13.27
2018-09-30T01:50:31.456Z,12.67
2018-09-30T01:52:59.680Z,14.10
2018-09-30T01:55:27.942Z,9.90
2018-09-30T01:57:56.139Z,12.87
2018-09-30T02:00:24.332Z,10.37
2018-09-30T02:02:52.512Z,9.83
2018-09-30T02:05:20.716Z,12.13
2018-09-30T02:07:49.336Z,9.28
2018-09-30T02:10:17.748Z,9.23
2018-09-30T02:12:46.099Z,10.45
2018-09-30T02:15:14.400Z,15.10
2018-09-30T02:17:42.661Z,8.83
2018-09-30T02:20:10.868Z,7.12
2018-09-30T02:22:39.945Z,8.50
2018-09-30T02:25:08.102Z,8.53
2018-09-30T02:27:36.560Z,11.93
2018-09-30T02:30:05.317Z,14.68
2018-09-30T02:32:33.520Z,11.47
2018-09-30T02:35:01.794Z,7.08
2018-09-30T02:37:29.952Z,11.20
2018-09-30T02:44:52.490Z,8.75
2018-09-30T02:47:20.700Z,7.67
2018-09-30T02:49:48.918Z,6.77
2018-09-30T02:52:17.155Z,6.70
2018-09-30T02:54:45.316Z,8.57
2018-09-30T02:57:13.528Z,10.03
2018-09-30T02:59:41.750Z,9.93
2018-09-30T03:02:09.964Z,11.27
2018-09-30T03:04:38.141Z,8.60
2018-09-30T03:07:11.969Z,7.63
2018-09-30T03:09:42.557Z,6.65
2018-09-30T03:12:10.800Z,12.00
2018-09-30T03:14:39.011Z,8.23
2018-09-30T03:17:07.313Z,7.30
2018-09-30T03:19:35.518Z,5.23
2018-09-30T03:22:03.677Z,5.50
2018-09-30T03:24:31.823Z,4.10
2018-09-30T03:26:59.980Z,5.67
2018-09-30T03:29:28.315Z,5.80
2018-09-30T03:31:56.488Z,9.00
2018-09-30T03:34:24.644Z,10.20
2018-09-30T03:36:57.496Z,7.17
2018-09-30T03:39:25.688Z,4.70
2018-09-30T03:41:53.952Z,4.20
2018-09-30T03:44:22.166Z,5.63
2018-09-30T03:46:50.358Z,6.07
2018-09-30T03:49:18.563Z,6.27
2018-09-30T03:51:50.602Z,7.50
2018-09-30T03:54:18.804Z,7.50
2018-09-30T03:56:47.089Z,10.18
2018-09-30T03:59:15.215Z,5.70
2018-09-30T04:01:43.491Z,7.08
2018-09-30T04:04:16.114Z,6.78
2018-09-30T04:06:44.321Z,5.47
2018-09-30T04:09:12.527Z,11.80
2018-09-30T04:11:40.794Z,7.35
2018-09-30T04:14:08.970Z,8.00
2018-09-30T04:16:37.199Z,6.30
2018-09-30T04:19:12.944Z,9.17
2018-09-30T04:21:41.151Z,8.60
2018-09-30T04:24:10.087Z,10.75
2018-09-30T04:26:39.363Z,8.63
2018-09-30T04:29:07.703Z,7.23
2018-09-30T04:31:36.220Z,9.40
2018-09-30T04:34:07.832Z,8.53
2018-09-30T04:36:36.443Z,6.83
2018-09-30T04:39:07.259Z,5.03
2018-09-30T04:41:35.469Z,7.60
2018-09-30T04:44:03.949Z,9.60
2018-09-30T04:46:32.153Z,5.60
2018-09-30T04:49:00.397Z,4.83
2018-09-30T04:51:31.696Z,7.73
2018-09-30T04:54:00.339Z,4.18
2018-09-30T04:56:28.549Z,7.40
2018-09-30T04:58:56.787Z,6.42
2018-09-30T05:01:25.160Z,6.97
2018-09-30T05:03:53.332Z,6.55
2018-09-30T05:06:21.532Z,5.50
2018-09-30T05:08:49.732Z,6.10
2018-09-30T05:11:17.927Z,5.07
2018-09-30T05:13:46.116Z,9.87
2018-09-30T05:16:14.752Z,5.08
2018-09-30T05:18:42.892Z,11.12
2018-09-30T05:21:11.091Z,6.25
2018-09-30T05:23:39.254Z,7.90
2018-09-30T05:26:07.487Z,9.08
2018-09-30T05:28:35.676Z,6.17
2018-09-30T05:31:04.017Z,13.58
2018-09-30T05:33:32.164Z,7.50
2018-09-30T05:36:08.225Z,5.80
2018-09-30T05:38:36.727Z,6.90
2018-09-30T05:41:05.056Z,5.78
2018-09-30T05:43:33.241Z,4.87
2018-09-30T05:46:01.431Z,6.97
2018-09-30T05:48:29.558Z,4.58
2018-09-30T05:51:02.173Z,6.10
2018-09-30T05:53:30.373Z,5.17
2018-09-30T05:55:58.595Z,5.58
2018-09-30T05:58:26.804Z,4.33
2018-09-30T06:00:55.184Z,5.53
2018-09-30T06:03:23.340Z,4.95
2018-09-30T06:05:54.627Z,6.47
2018-09-30T06:08:22.884Z,5.57
2018-09-30T06:10:51.104Z,6.53
2018-09-30T06:13:19.992Z,7.55
2018-09-30T06:15:48.294Z,11.83
2018-09-30T06:18:16.427Z,7.92
2018-09-30T06:20:56.373Z,6.97
2018-09-30T06:23:24.589Z,7.60
2018-09-30T06:25:52.943Z,6.07
2018-09-30T06:28:21.309Z,6.90
2018-09-30T06:30:49.480Z,8.33
2018-09-30T06:33:17.704Z,9.67
2018-09-30T06:35:53.725Z,5.45
2018-09-30T06:38:22.530Z,7.90
2018-09-30T06:40:50.773Z,3.92
2018-09-30T06:43:18.948Z,6.20
2018-09-30T06:45:47.370Z,7.83
2018-09-30T06:48:15.541Z,5.57
2018-09-30T06:50:43.852Z,8.30
2018-09-30T06:53:12.009Z,13.10
2018-09-30T06:55:40.197Z,8.43
2018-09-30T06:58:08.400Z,9.27
2018-09-30T07:00:37.058Z,5.25
2018-09-30T07:03:05.272Z,5.53
2018-09-30T07:05:33.487Z,9.20
2018-09-30T07:08:06.203Z,6.62
2018-09-30T07:10:34.390Z,5.87
2018-09-30T07:13:02.596Z,14.30
2018-09-30T07:15:30.796Z,5.73
2018-09-30T07:17:59.017Z,9.10
2018-09-30T07:20:27.955Z,6.42
2018-09-30T07:23:00.497Z,3.50
2018-09-30T07:25:28.775Z,7.20
2018-09-30T07:27:57.339Z,7.75
2018-09-30T07:30:25.574Z,3.90
2018-09-30T07:32:53.979Z,5.78
2018-09-30T07:35:22.175Z,7.97
2018-09-30T07:37:57.454Z,6.85
2018-09-30T07:40:25.699Z,5.47
2018-09-30T07:42:53.962Z,4.30
2018-09-30T07:45:22.875Z,4.50
2018-09-30T07:47:51.296Z,5.83
2018-09-30T07:50:19.920Z,6.30
2018-09-30T07:52:48.081Z,7.80
2018-09-30T07:55:16.301Z,5.43
2018-09-30T07:57:44.504Z,5.37
2018-09-30T08:00:12.679Z,5.47
2018-09-30T08:02:40.897Z,4.50
2018-09-30T08:05:09.096Z,7.17
2018-09-30T08:07:40.414Z,4.03
2018-09-30T08:10:08.604Z,2.80
2018-09-30T08:12:37.611Z,5.32
2018-09-30T08:15:05.820Z,3.35
2018-09-30T08:17:34.188Z,11.33
2018-09-30T08:20:02.536Z,5.87
2018-09-30T08:22:34.773Z,2.80
2018-09-30T08:25:02.945Z,4.90
2018-09-30T08:27:31.140Z,5.28
2018-09-30T08:29:59.368Z,5.62
2018-09-30T08:32:27.640Z,4.40
2018-09-30T08:34:55.813Z,5.80
2018-09-30T08:37:29.549Z,3.90
2018-09-30T08:39:57.918Z,4.25
2018-09-30T08:42:26.121Z,4.57
2018-09-30T08:44:54.478Z,4.05
2018-09-30T08:47:22.896Z,3.50
2018-09-30T08:49:51.057Z,3.60
2018-09-30T08:52:19.295Z,3.60
2018-09-30T08:54:47.545Z,4.07
2018-09-30T08:57:15.852Z,4.13
2018-09-30T08:59:44.116Z,2.07
2018-09-30T09:02:12.323Z,3.40
2018-09-30T09:04:40.522Z,4.33
2018-09-30T09:07:08.788Z,7.13
2018-09-30T09:09:37.242Z,3.53
2018-09-30T09:12:05.476Z,4.33
2018-09-30T09:14:33.652Z,3.53
2018-09-30T09:17:01.824Z,5.17
2018-09-30T09:19:51.996Z,3.37
2018-09-30T09:22:50.132Z,3.20
2018-09-30T09:25:49.041Z,5.13
2018-09-30T09:28:46.816Z,4.72
2018-09-30T09:31:44.912Z,4.53
2018-09-30T09:34:42.714Z,7.07
2018-09-30T09:40:32.011Z,8.23
2018-09-30T09:43:22.549Z,4.67
2018-09-30T09:46:20.488Z,5.50
2018-09-30T09:49:18.660Z,2.57
2018-09-30T09:54:52.806Z,2.50
2018-09-30T09:57:21.062Z,5.58
2018-09-30T09:59:49.262Z,3.80
2018-09-30T10:02:18.004Z,2.10
2018-09-30T10:04:46.222Z,3.37
2018-09-30T10:07:14.423Z,7.33
2018-09-30T10:09:45.458Z,3.57
2018-09-30T10:12:13.731Z,3.35
2018-09-30T10:14:42.849Z,5.63
2018-09-30T10:17:11.044Z,8.48
2018-09-30T10:19:39.329Z,5.37
2018-09-30T10:22:08.221Z,3.98
2018-09-30T11:18:11.181Z,6.00
2018-09-30T11:20:39.348Z,3.70
2018-09-30T11:23:07.681Z,2.27
2018-09-30T11:25:35.904Z,3.93
2018-09-30T11:28:04.129Z,4.07
2018-09-30T11:30:32.324Z,7.60
2018-09-30T11:33:00.516Z,4.67
2018-09-30T11:35:28.780Z,5.37
2018-09-30T11:37:56.976Z,6.37
2018-09-30T11:40:25.183Z,7.08
2018-09-30T11:42:57.572Z,3.55
2018-09-30T11:45:25.977Z,3.73
2018-09-30T11:47:54.280Z,4.20
2018-09-30T11:50:22.499Z,4.70
2018-09-30T11:52:50.811Z,5.62
2018-09-30T11:55:18.895Z,10.47
2018-09-30T11:57:47.095Z,4.23
2018-09-30T12:00:15.346Z,6.83
2018-09-30T12:02:43.760Z,9.53
2018-09-30T12:05:11.932Z,6.47
2018-09-30T12:07:43.648Z,9.83
2018-09-30T12:10:11.863Z,6.00
2018-09-30T12:12:43.415Z,7.67
2018-09-30T12:15:12.438Z,4.60
2018-09-30T12:17:40.735Z,10.33
2018-09-30T12:20:08.919Z,10.33
2018-09-30T12:22:37.356Z,6.95
2018-09-30T12:25:05.535Z,5.40
2018-09-30T12:27:33.755Z,3.20
2018-09-30T12:30:02.234Z,4.60
2018-09-30T12:32:30.456Z,6.07
2018-09-30T12:34:58.781Z,13.25
2018-09-30T12:37:27.222Z,9.30
2018-09-30T12:39:55.969Z,9.00
2018-09-30T12:42:24.581Z,4.08
2018-09-30T12:44:52.808Z,13.47
2018-09-30T12:47:21.686Z,3.30
2018-09-30T12:49:49.906Z,7.20
2018-09-30T12:52:18.185Z,6.30
2018-09-30T12:54:46.371Z,6.20
2018-09-30T12:57:14.538Z,14.13
2018-09-30T12:59:46.704Z,6.03
2018-09-30T13:02:14.956Z,5.83
2018-09-30T13:04:43.453Z,4.72
2018-09-30T13:07:11.651Z,6.93
2018-09-30T13:09:39.868Z,6.03
2018-09-30T13:12:13.551Z,6.37
2018-09-30T13:19:37.940Z,6.35
2018-09-30T13:22:05.922Z,4.00
2018-09-30T13:24:34.189Z,9.40
2018-09-30T13:27:02.419Z,4.53
2018-09-30T13:29:30.650Z,8.17
2018-09-30T13:31:58.850Z,8.15
2018-09-30T13:34:27.066Z,8.67
2018-09-30T13:36:55.332Z,9.10
2018-09-30T13:39:23.568Z,9.70
2018-09-30T13:41:51.800Z,9.67
2018-09-30T13:44:27.079Z,4.80
2018-09-30T13:46:55.288Z,5.08
2018-09-30T13:49:23.505Z,8.87
2018-09-30T13:51:51.743Z,4.35
2018-09-30T13:54:19.951Z,6.23
2018-09-30T13:56:48.173Z,8.73
2018-09-30T13:59:20.892Z,8.03
2018-09-30T14:01:49.131Z,6.37
2018-09-30T14:04:18.386Z,6.28
2018-09-30T14:06:47.250Z,7.45
2018-09-30T14:09:15.421Z,5.70
2018-09-30T14:11:43.624Z,4.97
2018-09-30T14:14:15.916Z,10.37
2018-09-30T14:16:44.151Z,8.35
2018-09-30T14:19:12.324Z,7.70
2018-09-30T14:21:40.500Z,6.97
2018-09-30T14:24:08.715Z,7.47
2018-09-30T14:26:37.175Z,4.77
2018-09-30T14:29:05.441Z,4.60
2018-09-30T14:31:33.681Z,5.60
2018-09-30T14:34:01.964Z,7.50
2018-09-30T14:36:30.164Z,12.75
2018-09-30T14:38:58.347Z,8.63
2018-09-30T14:41:26.583Z,8.10
2018-09-30T14:44:01.808Z,6.10
2018-09-30T14:46:30.078Z,5.90
2018-09-30T14:48:58.292Z,4.57
2018-09-30T14:51:26.480Z,4.78
2018-09-30T14:53:54.831Z,6.20
2018-09-30T14:56:22.968Z,9.10
2018-09-30T14:58:52.106Z,12.43
2018-09-30T15:01:20.356Z,5.92
2018-09-30T15:03:49.158Z,9.40
2018-09-30T15:06:17.384Z,6.35
2018-09-30T15:08:45.629Z,5.97
2018-09-30T15:11:14.057Z,6.58
2018-09-30T15:13:42.275Z,8.95
2018-09-30T15:16:11.296Z,9.33
2018-09-30T15:18:40.476Z,7.23
2018-09-30T15:21:08.677Z,9.13
2018-09-30T15:23:37.023Z,11.83
2018-09-30T15:26:05.928Z,8.28
2018-09-30T15:28:34.143Z,5.93
2018-09-30T15:31:02.327Z,6.78
2018-09-30T15:33:31.306Z,7.15
2018-09-30T15:35:59.493Z,11.20
2018-09-30T15:38:27.812Z,6.62
2018-09-30T15:40:56.039Z,4.00
2018-09-30T15:43:24.256Z,7.03
2018-09-30T15:45:52.444Z,6.00
2018-09-30T15:48:20.815Z,12.23
2018-09-30T15:50:49.000Z,7.60
2018-09-30T15:53:20.212Z,9.03
2018-09-30T15:55:48.489Z,6.08
2018-09-30T15:58:16.737Z,11.00
2018-09-30T16:00:49.580Z,7.80
2018-09-30T16:03:17.910Z,4.83
2018-09-30T16:05:46.347Z,10.15
2018-09-30T16:08:14.679Z,9.30
2018-09-30T16:10:43.214Z,9.33
2018-09-30T16:13:11.409Z,15.33
2018-09-30T16:15:56.541Z,10.53
2018-09-30T16:18:24.726Z,7.83
2018-09-30T16:20:53.697Z,8.13
2018-09-30T16:23:22.117Z,7.33
2018-09-30T16:25:50.392Z,6.43
2018-09-30T16:28:18.687Z,8.98
2018-09-30T16:30:46.820Z,5.73
2018-09-30T16:33:15.020Z,7.20
2018-09-30T16:35:43.237Z,8.95
2018-09-30T16:38:11.440Z,9.85
2018-09-30T16:40:39.848Z,7.75
2018-09-30T16:43:08.106Z,9.28
2018-09-30T16:45:36.832Z,10.20
2018-09-30T16:48:05.392Z,8.30
2018-09-30T16:50:34.472Z,6.87
2018-09-30T16:53:03.078Z,9.15
2018-09-30T16:55:31.600Z,17.13
2018-09-30T16:57:59.809Z,10.10
2018-09-30T17:00:28.098Z,11.30
2018-09-30T17:02:56.280Z,10.17
2018-09-30T17:05:24.688Z,8.53
2018-09-30T17:07:52.810Z,17.63
2018-09-30T17:10:21.003Z,15.90
2018-09-30T17:12:49.156Z,13.83
2018-09-30T17:15:17.366Z,9.43
2018-09-30T17:17:45.712Z,8.77
2018-09-30T17:20:13.939Z,15.93
2018-09-30T17:22:42.370Z,10.17
2018-09-30T17:25:11.593Z,7.90
2018-09-30T17:27:39.843Z,14.80
2018-09-30T17:30:08.028Z,11.00
2018-09-30T17:32:36.704Z,6.30
2018-09-30T17:35:05.008Z,10.55
2018-09-30T17:37:33.305Z,11.90
2018-09-30T17:40:08.135Z,7.80
2018-09-30T17:42:36.512Z,17.85
2018-09-30T17:45:05.221Z,9.98
2018-09-30T17:47:37.051Z,9.20
2018-09-30T17:50:05.288Z,18.65
2018-09-30T17:52:33.584Z,14.17
2018-09-30T17:55:02.860Z,15.10
2018-09-30T17:57:31.125Z,15.17
2018-09-30T17:59:59.357Z,10.80
2018-09-30T18:02:27.950Z,15.18
2018-09-30T18:04:56.235Z,17.00
2018-09-30T18:07:24.417Z,15.03
2018-09-30T18:09:52.693Z,9.77
2018-09-30T18:12:20.913Z,8.67
2018-09-30T18:14:51.221Z,15.97
2018-09-30T18:17:41.663Z,9.27
2018-09-30T18:20:39.819Z,9.75
2018-09-30T18:36:43.433Z,10.78
2018-09-30T18:39:33.483Z,11.70
2018-09-30T18:42:32.113Z,15.60
2018-09-30T18:45:29.693Z,10.80
2018-09-30T18:48:27.521Z,12.80
2018-09-30T18:51:26.155Z,15.83
2018-09-30T18:54:23.745Z,9.87
2018-09-30T18:57:22.357Z,13.98
2018-09-30T18:59:51.141Z,10.38
2018-09-30T19:02:48.592Z,13.25
2018-09-30T19:05:46.404Z,12.20
2018-09-30T19:08:44.127Z,9.07
2018-09-30T19:11:12.775Z,16.63
2018-09-30T19:13:40.999Z,13.30
2018-09-30T19:16:09.274Z,13.00
2018-09-30T19:18:40.904Z,15.23
2018-09-30T19:21:09.320Z,9.80
2018-09-30T19:23:37.580Z,12.40
2018-09-30T19:26:05.867Z,16.13
2018-09-30T19:28:34.131Z,13.63
2018-09-30T19:31:02.345Z,12.70
2018-09-30T19:33:30.692Z,14.87
2018-09-30T19:35:58.972Z,20.57
2018-09-30T19:38:27.186Z,21.80
2018-09-30T19:40:55.396Z,14.68
2018-09-30T19:43:23.776Z,13.17
2018-09-30T19:45:52.020Z,14.90
2018-09-30T19:48:22.528Z,12.63
2018-09-30T19:50:50.736Z,15.67
2018-09-30T19:53:19.915Z,15.43
2018-09-30T19:55:48.178Z,14.07
2018-09-30T19:58:16.429Z,16.97
2018-09-30T20:00:44.629Z,16.83
2018-09-30T20:03:12.856Z,21.70
2018-09-30T20:05:41.304Z,14.03
2018-09-30T20:08:12.536Z,15.66
2018-09-30T20:10:43.897Z,14.30
2018-09-30T20:13:12.125Z,11.87
2018-09-30T20:15:40.333Z,15.77
2018-09-30T20:18:08.609Z,19.70
2018-09-30T20:20:41.315Z,16.50
2018-09-30T20:23:09.520Z,15.48
2018-09-30T20:25:37.691Z,18.25
2018-09-30T20:28:06.064Z,20.00
2018-09-30T20:30:35.174Z,13.50
2018-09-30T20:33:04.416Z,16.77
2018-09-30T20:35:40.258Z,15.20
2018-09-30T20:38:09.014Z,19.93
2018-09-30T20:40:39.444Z,17.62
2018-09-30T20:43:07.707Z,19.42
2018-09-30T20:45:36.716Z,21.97
2018-09-30T20:48:04.926Z,14.43
2018-09-30T20:50:37.264Z,18.70
2018-09-30T20:53:05.468Z,20.00
2018-09-30T20:55:34.251Z,17.50
2018-09-30T20:58:02.748Z,15.43
2018-09-30T21:00:32.041Z,18.77
2018-09-30T21:03:00.524Z,19.37
2018-09-30T21:05:40.025Z,19.27
2018-09-30T21:08:08.908Z,19.85
2018-09-30T21:10:37.221Z,20.43
2018-09-30T21:13:05.356Z,19.65
2018-09-30T21:15:33.651Z,17.13
2018-09-30T21:18:01.923Z,16.95
2018-09-30T21:20:34.161Z,18.07
2018-09-30T21:23:02.409Z,21.67
2018-09-30T21:25:30.685Z,18.23
2018-09-30T21:27:58.920Z,16.63
2018-09-30T21:30:27.179Z,16.30
2018-09-30T21:32:55.453Z,21.97
2018-09-30T21:35:23.728Z,16.87
2018-09-30T21:37:51.968Z,16.93
2018-09-30T21:40:20.180Z,13.83
2018-09-30T21:42:48.416Z,20.63
2018-09-30T21:45:16.678Z,14.30
2018-09-30T21:47:44.871Z,16.77
2018-09-30T21:50:13.057Z,19.73
2018-09-30T21:52:41.302Z,17.50
2018-09-30T21:55:09.582Z,19.42
2018-09-30T21:57:38.233Z,18.10
2018-09-30T22:00:07.238Z,16.77
2018-09-30T22:02:35.432Z,16.87
2018-09-30T22:05:03.656Z,17.70
2018-09-30T22:07:32.603Z,17.07
2018-09-30T22:10:00.792Z,17.23
2018-09-30T22:12:29.061Z,24.72
2018-09-30T22:14:57.280Z,11.53
2018-09-30T22:17:25.497Z,17.47
2018-09-30T22:19:53.764Z,16.40
2018-09-30T22:22:22.024Z,20.63
2018-09-30T22:24:50.224Z,17.13
2018-09-30T22:27:18.430Z,22.53
2018-09-30T22:29:46.628Z,15.50
2018-09-30T22:32:14.855Z,13.47
2018-09-30T22:34:43.080Z,20.80
2018-09-30T22:37:15.022Z,15.40
2018-09-30T22:39:43.217Z,14.05
2018-09-30T22:42:11.503Z,15.58
2018-09-30T22:44:39.680Z,16.53
2018-09-30T22:47:07.968Z,18.55
2018-09-30T22:49:36.200Z,13.08
2018-09-30T22:52:08.111Z,16.60
2018-09-30T22:54:36.509Z,17.10
2018-09-30T22:57:04.690Z,15.10
2018-09-30T22:59:32.990Z,17.33
2018-09-30T23:02:01.523Z,13.38
2018-09-30T23:04:29.802Z,12.85
2018-09-30T23:06:58.022Z,14.40
2018-09-30T23:09:26.220Z,17.82
2018-09-30T23:11:54.443Z,15.90
2018-09-30T23:14:22.672Z,14.80
2018-09-30T23:16:50.949Z,15.70
2018-09-30T23:19:19.150Z,19.30
2018-09-30T23:21:47.459Z,18.13
2018-09-30T23:24:15.710Z,18.67
2018-09-30T23:26:43.951Z,14.70
2018-09-30T23:29:12.468Z,14.10
2018-09-30T23:31:41.045Z,18.50
2018-09-30T23:39:12.880Z,12.98
2018-09-30T23:41:41.146Z,19.67
2018-09-30T23:44:09.715Z,17.12
2018-09-30T23:46:37.945Z,17.30
2018-09-30T23:49:06.396Z,18.30
2018-09-30T23:51:34.851Z,16.83
2018-09-30T23:54:13.697Z,17.37
2018-09-30T23:56:42.309Z,18.90
2018-09-30T23:59:10.484Z,15.50
